Mason, MI

1:49 PM EDT on April 26, 2017 (GMT -0400)
Mason Jewett

Weather History for KTEW - February, 2013

Change the Weather History Date:

Friday, February 22, 2013

  Actual Average (KLAN) Record (KLAN)
Temperature  
Mean Temperature 27 °F -  
Max Temperature 33 °F 37 °F 66 °F (1930)
Min Temperature 21 °F 21 °F -14 °F (1936)
Degree Days  
Heating Degree Days 38    
Moisture  
Dew Point 24 °F    
Average Humidity 87    
Maximum Humidity 97    
Minimum Humidity 77    
Precipitation  
Precipitation 0.00 in - - ()
Sea Level Pressure  
Sea Level Pressure 29.94 in    
Wind  
Wind Speed 10 mph (SE)    
Max Wind Speed 15 mph    
Max Gust Speed 23 mph    
Visibility 6 miles    
Events Snow    
Averages and records for this station are not official NWS values.
T = Trace of Precipitation, MM = Missing Value Source: NWS Daily Summary

Daily Weather History Graph

Daily Weather History Graph

Search for Another Location

Airport or City:

Trip Planner

Search our weather history database for the weather conditions in past years. The results will help you decide how hot, cold, wet, or windy it might be!

Date:

Astronomy

Feb. 22, 2013 Rise Set
Actual Time 7:23 AM EST 6:18 PM EST
Civil Twilight 6:55 AM EST 6:47 PM EST
Nautical Twilight 6:22 AM EST 7:20 PM EST
Astronomical Twilight 5:50 AM EST 7:52 PM EST
Moon 3:27 PM EST (2/22) 5:11 AM EST (2/22)
Length of Visible Light 11h 52m
Length of Day
10h 55m
Waxing Gibbous, 90% of the Moon is Illuminated
Feb 22
Waxing Gibbous
Feb 25
Full
Mar 4
Last Quarter
Mar 11
New
Mar 19
First Quarter

Hourly Weather History & Observations

Time (EST) Temp. Windchill Dew Point Humidity Pressure Visibility Wind Dir Wind Speed Gust Speed Precip Events Conditions
12:15 AM 21.7 °F 10.8 °F 15.6 °F 77% 30.19 in 10.0 mi East 10.4 mph 18.4 mph N/A   Overcast
12:35 AM 21.7 °F 10.8 °F 15.8 °F 78% 30.19 in 10.0 mi East 10.4 mph 16.1 mph N/A   Overcast
12:55 AM 21.9 °F 10.4 °F 16.3 °F 79% 30.19 in 10.0 mi East 11.5 mph 17.3 mph N/A   Overcast
1:15 AM 22.1 °F 11.3 °F 16.9 °F 80% 30.19 in 10.0 mi East 10.4 mph 17.3 mph N/A   Overcast
1:35 AM 22.5 °F 9.9 °F 17.4 °F 81% 30.18 in 10.0 mi East 13.8 mph 18.4 mph N/A   Overcast
1:55 AM 22.6 °F 11.9 °F 17.6 °F 81% 30.16 in 10.0 mi East 10.4 mph 17.3 mph N/A   Overcast
2:16 AM 22.8 °F 9.9 °F 18.1 °F 82% 30.16 in 10.0 mi ESE 15.0 mph 19.6 mph N/A   Overcast
2:35 AM 23.0 °F 12.4 °F 18.3 °F 82% 30.14 in 10.0 mi ESE 10.4 mph 19.6 mph N/A   Overcast
2:55 AM 23.0 °F 12.4 °F 18.5 °F 83% 30.13 in 10.0 mi East 10.4 mph 18.4 mph N/A   Overcast
3:15 AM 23.4 °F 13.5 °F 18.5 °F 82% 30.11 in 10.0 mi East 9.2 mph 16.1 mph N/A   Overcast
3:55 AM 23.4 °F 11.6 °F 18.5 °F 82% 30.06 in 10.0 mi East 12.7 mph 23.0 mph N/A   Overcast
4:16 AM 23.5 °F 13.0 °F 18.3 °F 80% 30.07 in 10.0 mi ESE 10.4 mph 18.4 mph N/A   Overcast
4:35 AM 23.7 °F 15.6 °F 18.5 °F 80% 30.06 in 10.0 mi ESE 6.9 mph - N/A   Overcast
4:55 AM 23.4 °F 12.8 °F 18.9 °F 83% 30.05 in 1.0 mi East 10.4 mph - N/A Snow Snow
5:15 AM 22.8 °F 15.5 °F 19.8 °F 88% 30.06 in 1.8 mi East 5.8 mph - N/A Snow Light Snow
5:36 AM 23.0 °F 12.4 °F 19.4 °F 86% 30.04 in 1.8 mi ENE 10.4 mph - N/A Snow Light Snow
5:55 AM 22.8 °F 11.5 °F 19.8 °F 88% 30.03 in 1.8 mi East 11.5 mph - N/A Snow Light Snow
6:15 AM 23.0 °F 11.1 °F 19.4 °F 86% 30.01 in 2.0 mi ENE 12.7 mph 16.1 mph N/A Snow Light Snow
6:35 AM 23.4 °F 11.6 °F 20.1 °F 87% 30.00 in 1.8 mi East 12.7 mph - N/A Snow Light Snow
6:56 AM 23.4 °F 12.8 °F 20.3 °F 88% 30.00 in 0.8 mi East 10.4 mph 17.3 mph N/A Snow Snow
7:15 AM 23.0 °F 11.1 °F 20.5 °F 90% 29.97 in 0.5 mi East 12.7 mph 18.4 mph N/A Snow Heavy Snow
7:36 AM 23.4 °F 11.1 °F 20.8 °F 90% 29.95 in 0.2 mi East 13.8 mph 20.7 mph N/A Snow Snow
7:55 AM 23.5 °F 13.7 °F 20.8 °F 89% 29.94 in 0.8 mi East 9.2 mph 19.6 mph N/A Snow Light Snow
8:15 AM 23.9 °F 13.5 °F 21.0 °F 89% 29.95 in 0.8 mi ESE 10.4 mph 19.6 mph N/A Snow Light Snow
8:36 AM 23.9 °F 14.2 °F 21.2 °F 89% 29.96 in 0.8 mi East 9.2 mph 17.3 mph N/A Snow Light Snow
8:55 AM 23.9 °F 13.5 °F 21.2 °F 89% 29.94 in 0.5 mi East 10.4 mph 17.3 mph N/A Snow Snow
9:15 AM 24.3 °F 16.3 °F 21.6 °F 89% 29.94 in 0.5 mi ESE 6.9 mph 16.1 mph N/A Snow Light Snow
9:36 AM 24.8 °F 14.6 °F 21.7 °F 88% 29.94 in 1.2 mi ESE 10.4 mph 16.1 mph N/A Snow Light Snow
9:55 AM 25.3 °F 15.3 °F 21.2 °F 84% 29.93 in 2.0 mi ESE 10.4 mph - N/A Snow Light Snow
10:16 AM 26.1 °F 15.6 °F 21.4 °F 82% 29.91 in 3.0 mi ESE 11.5 mph 18.4 mph N/A   Haze
10:35 AM 26.2 °F 15.8 °F 21.4 °F 82% 29.91 in 2.5 mi ESE 11.5 mph 17.3 mph N/A   Haze
10:55 AM 26.6 °F 17.5 °F 21.4 °F 81% 29.89 in 7.0 mi ESE 9.2 mph 17.3 mph N/A   Overcast
11:16 AM 26.6 °F 15.7 °F 21.6 °F 81% 29.90 in 10.0 mi ESE 12.7 mph 18.4 mph N/A   Overcast
11:35 AM 27.0 °F 17.3 °F 21.9 °F 81% 29.89 in 10.0 mi ESE 10.4 mph 18.4 mph N/A   Overcast
12:16 PM 27.9 °F 19.8 °F 23.0 °F 82% 29.89 in 10.0 mi SE 8.1 mph - N/A   Overcast
12:35 PM 28.0 °F 19.3 °F 23.4 °F 83% 29.89 in 10.0 mi SE 9.2 mph - N/A   Overcast
12:55 PM 28.0 °F 18.6 °F 23.9 °F 84% 29.88 in 10.0 mi SE 10.4 mph - N/A   Overcast
1:15 PM 28.4 °F 19.1 °F 24.4 °F 85% 29.87 in 10.0 mi SE 10.4 mph - N/A   Overcast
1:35 PM 28.4 °F 21.2 °F 24.8 °F 86% 29.86 in 10.0 mi SSE 6.9 mph - N/A   Overcast
1:56 PM 28.8 °F 21.7 °F 25.3 °F 87% 29.86 in 10.0 mi SE 6.9 mph - N/A   Overcast
2:15 PM 29.1 °F 21.3 °F 25.7 °F 87% 29.86 in 7.0 mi SE 8.1 mph - N/A   Overcast
2:35 PM 29.3 °F 21.5 °F 26.2 °F 88% 29.86 in 10.0 mi SE 8.1 mph - N/A   Overcast
2:56 PM 29.3 °F 22.3 °F 26.4 °F 89% 29.86 in 7.0 mi SE 6.9 mph - N/A   Overcast
3:15 PM 29.3 °F 22.3 °F 26.6 °F 90% 29.86 in 7.0 mi SSE 6.9 mph - N/A   Overcast
3:35 PM 29.7 °F 23.7 °F 27.1 °F 90% 29.86 in 5.0 mi SSE 5.8 mph - N/A   Overcast
3:56 PM 29.8 °F 23.9 °F 27.5 °F 91% 29.85 in 5.0 mi SE 5.8 mph - N/A   Overcast
4:15 PM 30.2 °F 24.3 °F 28.0 °F 92% 29.85 in 4.0 mi SSE 5.8 mph - N/A   Overcast
4:35 PM 30.2 °F 23.4 °F 28.2 °F 92% 29.85 in 3.0 mi SSE 6.9 mph - N/A   Overcast
4:56 PM 30.2 °F 23.4 °F 28.4 °F 93% 29.85 in 2.5 mi SSE 6.9 mph - N/A   Overcast
5:15 PM 30.6 °F 23.1 °F 28.8 °F 93% 29.85 in 1.8 mi SSE 8.1 mph - N/A   Overcast
5:36 PM 30.7 °F 24.9 °F 29.1 °F 94% 29.85 in 1.2 mi SSE 5.8 mph - N/A   Overcast
5:56 PM 30.9 °F 22.8 °F 29.3 °F 94% 29.85 in 1.0 mi SSE 9.2 mph - N/A   Overcast
6:15 PM 30.9 °F 22.8 °F 29.5 °F 94% 29.85 in 0.8 mi SSE 9.2 mph - N/A   Overcast
6:36 PM 31.5 °F 24.9 °F 30.2 °F 95% 29.85 in 1.2 mi SSE 6.9 mph - N/A   Overcast
6:56 PM 31.8 °F 25.4 °F 30.6 °F 95% 29.86 in 2.5 mi SSE 6.9 mph - N/A   Overcast
7:15 PM 32.0 °F 24.8 °F 30.9 °F 96% 29.86 in 2.0 mi SSE 8.1 mph - N/A   Overcast
7:36 PM 32.0 °F 24.8 °F 31.1 °F 96% 29.86 in 2.5 mi South 8.1 mph - N/A   Overcast
7:56 PM 32.2 °F 25.8 °F 31.5 °F 97% 29.86 in 3.0 mi South 6.9 mph - N/A   Overcast
8:15 PM 32.4 °F - 31.5 °F 96% 29.86 in 3.0 mi Calm Calm - N/A   Overcast
8:36 PM 32.9 °F 29.8 °F 31.8 °F 96% 29.86 in 3.0 mi South 3.5 mph - N/A   Overcast
8:56 PM 33.1 °F - 32.0 °F 96% 29.86 in 4.0 mi Calm Calm - N/A Snow Light Snow
9:15 PM 33.3 °F 30.2 °F 32.0 °F 95% 29.86 in 5.0 mi SSW 3.5 mph - N/A Snow Light Snow
9:36 PM 33.6 °F 30.6 °F 31.8 °F 93% 29.86 in 7.0 mi SSW 3.5 mph - N/A   Overcast
9:56 PM 33.8 °F 27.0 °F 31.5 °F 91% 29.86 in 10.0 mi SW 8.1 mph - N/A   Overcast
10:15 PM 33.8 °F 27.7 °F 30.9 °F 89% 29.86 in 10.0 mi SW 6.9 mph - N/A   Overcast
10:36 PM 33.4 °F 27.3 °F 30.9 °F 90% 29.86 in 10.0 mi SW 6.9 mph - N/A   Overcast
10:56 PM 33.4 °F 28.1 °F 30.2 °F 88% 29.86 in 10.0 mi SW 5.8 mph - N/A   Overcast
11:15 PM 33.1 °F 26.9 °F 29.8 °F 88% 29.86 in 10.0 mi SW 6.9 mph - N/A   Overcast
11:36 PM 32.9 °F 26.7 °F 29.1 °F 86% 29.86 in 10.0 mi SW 6.9 mph - N/A   Overcast
11:55 PM 32.4 °F 27.9 °F 28.4 °F 85% 29.86 in 10.0 mi SW 4.6 mph - N/A   Overcast